sensor_id;sensor_type;location;lat;lon;timestamp;temperature;humidity
28767;DHT22;15921;52.034;20.650;2023-05-24T00:01:18;18.30;84.50
28767;DHT22;15921;52.034;20.650;2023-05-24T00:03:53;18.30;84.00
28767;DHT22;15921;52.034;20.650;2023-05-24T00:06:24;18.20;84.10
28767;DHT22;15921;52.034;20.650;2023-05-24T00:08:51;18.30;84.50
28767;DHT22;15921;52.034;20.650;2023-05-24T00:11:17;18.30;84.50
28767;DHT22;15921;52.034;20.650;2023-05-24T00:13:43;18.30;84.80
28767;DHT22;15921;52.034;20.650;2023-05-24T00:16:09;18.30;84.90
28767;DHT22;15921;52.034;20.650;2023-05-24T00:18:35;18.20;85.10
28767;DHT22;15921;52.034;20.650;2023-05-24T00:21:06;18.20;84.10
28767;DHT22;15921;52.034;20.650;2023-05-24T00:23:32;18.20;83.70
28767;DHT22;15921;52.034;20.650;2023-05-24T00:25:58;18.20;84.20
28767;DHT22;15921;52.034;20.650;2023-05-24T00:28:25;18.20;84.50
28767;DHT22;15921;52.034;20.650;2023-05-24T00:30:51;18.20;84.30
28767;DHT22;15921;52.034;20.650;2023-05-24T00:33:17;18.10;84.80
28767;DHT22;15921;52.034;20.650;2023-05-24T00:35:42;18.10;84.50
28767;DHT22;15921;52.034;20.650;2023-05-24T00:38:08;18.10;84.30
28767;DHT22;15921;52.034;20.650;2023-05-24T00:40:34;18.00;83.80
28767;DHT22;15921;52.034;20.650;2023-05-24T00:42:59;18.00;84.50
28767;DHT22;15921;52.034;20.650;2023-05-24T00:45:25;17.90;84.70
28767;DHT22;15921;52.034;20.650;2023-05-24T00:47:51;17.90;85.10
28767;DHT22;15921;52.034;20.650;2023-05-24T00:50:17;17.90;85.40
28767;DHT22;15921;52.034;20.650;2023-05-24T00:52:44;17.80;84.50
28767;DHT22;15921;52.034;20.650;2023-05-24T00:55:10;17.80;85.00
28767;DHT22;15921;52.034;20.650;2023-05-24T00:57:36;17.80;84.00
28767;DHT22;15921;52.034;20.650;2023-05-24T01:00:04;17.70;84.80
28767;DHT22;15921;52.034;20.650;2023-05-24T01:02:30;17.80;84.90
28767;DHT22;15921;52.034;20.650;2023-05-24T01:04:57;17.70;85.30
28767;DHT22;15921;52.034;20.650;2023-05-24T01:10:41;17.70;85.50
28767;DHT22;15921;52.034;20.650;2023-05-24T01:16:31;17.60;86.40
28767;DHT22;15921;52.034;20.650;2023-05-24T01:19:10;17.60;86.70
28767;DHT22;15921;52.034;20.650;2023-05-24T01:24:24;17.60;88.10
28767;DHT22;15921;52.034;20.650;2023-05-24T01:29:34;17.60;90.00
28767;DHT22;15921;52.034;20.650;2023-05-24T01:32:00;17.60;89.50
28767;DHT22;15921;52.034;20.650;2023-05-24T01:34:26;17.60;90.20
28767;DHT22;15921;52.034;20.650;2023-05-24T01:36:52;17.60;90.40
28767;DHT22;15921;52.034;20.650;2023-05-24T01:39:19;17.60;90.40
28767;DHT22;15921;52.034;20.650;2023-05-24T01:44:42;17.60;91.00
28767;DHT22;15921;52.034;20.650;2023-05-24T01:49:45;17.50;90.00
28767;DHT22;15921;52.034;20.650;2023-05-24T01:52:15;17.50;88.80
28767;DHT22;15921;52.034;20.650;2023-05-24T01:54:46;17.50;88.00
28767;DHT22;15921;52.034;20.650;2023-05-24T01:57:12;17.40;88.90
28767;DHT22;15921;52.034;20.650;2023-05-24T01:59:41;17.40;89.00
28767;DHT22;15921;52.034;20.650;2023-05-24T02:02:08;17.40;89.40
28767;DHT22;15921;52.034;20.650;2023-05-24T02:04:34;17.40;89.20
28767;DHT22;15921;52.034;20.650;2023-05-24T02:07:00;17.30;89.20
28767;DHT22;15921;52.034;20.650;2023-05-24T02:09:25;17.30;88.90
28767;DHT22;15921;52.034;20.650;2023-05-24T02:11:51;17.20;88.20
28767;DHT22;15921;52.034;20.650;2023-05-24T02:14:17;17.10;88.20
28767;DHT22;15921;52.034;20.650;2023-05-24T02:16:44;16.90;88.90
28767;DHT22;15921;52.034;20.650;2023-05-24T02:19:13;16.80;88.60
28767;DHT22;15921;52.034;20.650;2023-05-24T02:21:39;16.70;88.70
28767;DHT22;15921;52.034;20.650;2023-05-24T02:24:05;16.70;89.00
28767;DHT22;15921;52.034;20.650;2023-05-24T02:26:32;16.70;89.30
28767;DHT22;15921;52.034;20.650;2023-05-24T02:28:58;16.70;90.00
28767;DHT22;15921;52.034;20.650;2023-05-24T02:31:24;16.70;89.90
28767;DHT22;15921;52.034;20.650;2023-05-24T02:33:54;16.70;90.10
28767;DHT22;15921;52.034;20.650;2023-05-24T02:36:19;16.60;90.10
28767;DHT22;15921;52.034;20.650;2023-05-24T02:38:51;16.60;90.30
28767;DHT22;15921;52.034;20.650;2023-05-24T02:41:17;16.60;90.70
28767;DHT22;15921;52.034;20.650;2023-05-24T02:43:46;16.60;91.00
28767;DHT22;15921;52.034;20.650;2023-05-24T02:46:13;16.60;91.00
28767;DHT22;15921;52.034;20.650;2023-05-24T02:48:38;16.50;91.00
28767;DHT22;15921;52.034;20.650;2023-05-24T02:51:05;16.40;91.20
28767;DHT22;15921;52.034;20.650;2023-05-24T02:53:31;16.40;91.30
28767;DHT22;15921;52.034;20.650;2023-05-24T02:55:57;16.40;91.60
28767;DHT22;15921;52.034;20.650;2023-05-24T02:58:23;16.40;92.00
28767;DHT22;15921;52.034;20.650;2023-05-24T03:00:49;16.40;92.20
28767;DHT22;15921;52.034;20.650;2023-05-24T03:03:15;16.30;92.10
28767;DHT22;15921;52.034;20.650;2023-05-24T03:05:41;16.30;92.00
28767;DHT22;15921;52.034;20.650;2023-05-24T03:08:07;16.20;92.30
28767;DHT22;15921;52.034;20.650;2023-05-24T03:10:33;16.20;92.70
28767;DHT22;15921;52.034;20.650;2023-05-24T03:12:58;16.20;93.30
28767;DHT22;15921;52.034;20.650;2023-05-24T03:15:24;16.20;93.60
28767;DHT22;15921;52.034;20.650;2023-05-24T03:17:50;16.20;93.80
28767;DHT22;15921;52.034;20.650;2023-05-24T03:20:16;16.20;94.40
28767;DHT22;15921;52.034;20.650;2023-05-24T03:22:42;16.20;94.70
28767;DHT22;15921;52.034;20.650;2023-05-24T03:25:08;16.10;94.90
28767;DHT22;15921;52.034;20.650;2023-05-24T03:27:35;16.10;95.40
28767;DHT22;15921;52.034;20.650;2023-05-24T03:30:01;16.20;95.90
28767;DHT22;15921;52.034;20.650;2023-05-24T03:32:26;16.20;96.00
28767;DHT22;15921;52.034;20.650;2023-05-24T03:34:52;16.20;96.30
28767;DHT22;15921;52.034;20.650;2023-05-24T03:37:18;16.20;96.70
28767;DHT22;15921;52.034;20.650;2023-05-24T03:39:44;16.30;96.90
28767;DHT22;15921;52.034;20.650;2023-05-24T03:42:10;16.30;96.90
28767;DHT22;15921;52.034;20.650;2023-05-24T03:44:35;16.20;97.30
28767;DHT22;15921;52.034;20.650;2023-05-24T03:47:01;16.20;97.60
28767;DHT22;15921;52.034;20.650;2023-05-24T03:49:28;16.10;97.80
28767;DHT22;15921;52.034;20.650;2023-05-24T03:51:53;16.10;98.00
28767;DHT22;15921;52.034;20.650;2023-05-24T03:54:19;16.10;98.70
28767;DHT22;15921;52.034;20.650;2023-05-24T03:56:45;16.00;99.30
28767;DHT22;15921;52.034;20.650;2023-05-24T03:59:11;15.90;99.90
28767;DHT22;15921;52.034;20.650;2023-05-24T04:01:36;15.90;99.90
28767;DHT22;15921;52.034;20.650;2023-05-24T04:04:03;15.90;99.90
28767;DHT22;15921;52.034;20.650;2023-05-24T04:06:29;15.80;99.90
28767;DHT22;15921;52.034;20.650;2023-05-24T04:08:55;15.90;99.90
28767;DHT22;15921;52.034;20.650;2023-05-24T04:11:22;15.90;99.90
28767;DHT22;15921;52.034;20.650;2023-05-24T04:13:51;15.90;99.90
28767;DHT22;15921;52.034;20.650;2023-05-24T04:16:16;15.90;99.90
28767;DHT22;15921;52.034;20.650;2023-05-24T04:18:42;16.00;99.90
28767;DHT22;15921;52.034;20.650;2023-05-24T04:21:10;16.10;99.90
28767;DHT22;15921;52.034;20.650;2023-05-24T04:23:35;16.20;99.90
28767;DHT22;15921;52.034;20.650;2023-05-24T04:26:01;16.30;99.90
28767;DHT22;15921;52.034;20.650;2023-05-24T04:28:27;16.50;99.90
28767;DHT22;15921;52.034;20.650;2023-05-24T04:30:52;16.80;99.90
28767;DHT22;15921;52.034;20.650;2023-05-24T04:33:19;17.00;99.90
28767;DHT22;15921;52.034;20.650;2023-05-24T04:35:45;17.30;99.90
28767;DHT22;15921;52.034;20.650;2023-05-24T04:38:12;17.60;99.90
28767;DHT22;15921;52.034;20.650;2023-05-24T04:40:38;17.90;99.60
28767;DHT22;15921;52.034;20.650;2023-05-24T04:43:04;18.20;97.70
28767;DHT22;15921;52.034;20.650;2023-05-24T04:45:32;18.50;95.90
28767;DHT22;15921;52.034;20.650;2023-05-24T04:47:58;18.80;94.70
28767;DHT22;15921;52.034;20.650;2023-05-24T04:50:24;19.00;93.00
28767;DHT22;15921;52.034;20.650;2023-05-24T04:52:50;19.30;92.30
28767;DHT22;15921;52.034;20.650;2023-05-24T04:55:16;19.50;90.80
28767;DHT22;15921;52.034;20.650;2023-05-24T04:57:41;19.60;89.30
28767;DHT22;15921;52.034;20.650;2023-05-24T05:00:08;19.70;87.90
28767;DHT22;15921;52.034;20.650;2023-05-24T05:02:34;19.80;86.40
28767;DHT22;15921;52.034;20.650;2023-05-24T05:05:00;19.80;85.10
28767;DHT22;15921;52.034;20.650;2023-05-24T05:07:26;19.90;85.20
28767;DHT22;15921;52.034;20.650;2023-05-24T05:09:51;19.90;84.90
28767;DHT22;15921;52.034;20.650;2023-05-24T05:12:17;20.10;84.00
28767;DHT22;15921;52.034;20.650;2023-05-24T05:14:43;20.20;83.50
28767;DHT22;15921;52.034;20.650;2023-05-24T05:17:08;20.20;83.30
28767;DHT22;15921;52.034;20.650;2023-05-24T05:19:34;20.40;83.30
28767;DHT22;15921;52.034;20.650;2023-05-24T05:22:00;20.40;83.00
28767;DHT22;15921;52.034;20.650;2023-05-24T05:24:26;20.30;82.60
28767;DHT22;15921;52.034;20.650;2023-05-24T05:26:51;20.40;82.50
28767;DHT22;15921;52.034;20.650;2023-05-24T05:29:17;20.30;81.00
28767;DHT22;15921;52.034;20.650;2023-05-24T05:31:43;20.20;80.50
28767;DHT22;15921;52.034;20.650;2023-05-24T05:34:08;20.10;80.90
28767;DHT22;15921;52.034;20.650;2023-05-24T05:36:36;20.10;81.40
28767;DHT22;15921;52.034;20.650;2023-05-24T05:39:06;20.10;80.80
28767;DHT22;15921;52.034;20.650;2023-05-24T05:41:38;20.10;80.50
28767;DHT22;15921;52.034;20.650;2023-05-24T05:44:04;20.10;80.70
28767;DHT22;15921;52.034;20.650;2023-05-24T05:46:31;20.00;79.70
28767;DHT22;15921;52.034;20.650;2023-05-24T05:48:56;19.90;79.30
28767;DHT22;15921;52.034;20.650;2023-05-24T05:51:22;19.90;79.50
28767;DHT22;15921;52.034;20.650;2023-05-24T05:53:47;20.00;79.40
28767;DHT22;15921;52.034;20.650;2023-05-24T05:56:13;20.00;78.90
28767;DHT22;15921;52.034;20.650;2023-05-24T05:58:39;20.00;78.80
28767;DHT22;15921;52.034;20.650;2023-05-24T06:01:04;20.10;79.00
28767;DHT22;15921;52.034;20.650;2023-05-24T06:03:30;20.20;79.30
28767;DHT22;15921;52.034;20.650;2023-05-24T06:05:56;20.20;78.80
28767;DHT22;15921;52.034;20.650;2023-05-24T06:08:21;20.20;78.70
28767;DHT22;15921;52.034;20.650;2023-05-24T06:10:47;20.30;79.00
28767;DHT22;15921;52.034;20.650;2023-05-24T06:13:13;20.40;78.40
28767;DHT22;15921;52.034;20.650;2023-05-24T06:15:38;20.40;77.60
28767;DHT22;15921;52.034;20.650;2023-05-24T06:18:05;20.40;77.90
28767;DHT22;15921;52.034;20.650;2023-05-24T06:20:30;20.40;78.00
28767;DHT22;15921;52.034;20.650;2023-05-24T06:22:56;20.50;78.30
28767;DHT22;15921;52.034;20.650;2023-05-24T06:25:22;20.50;77.20
28767;DHT22;15921;52.034;20.650;2023-05-24T06:27:49;20.50;77.30
28767;DHT22;15921;52.034;20.650;2023-05-24T06:30:19;20.40;77.60
28767;DHT22;15921;52.034;20.650;2023-05-24T06:32:44;20.40;77.20
28767;DHT22;15921;52.034;20.650;2023-05-24T06:35:10;20.40;76.70
28767;DHT22;15921;52.034;20.650;2023-05-24T06:37:36;20.50;76.90
28767;DHT22;15921;52.034;20.650;2023-05-24T06:40:04;20.70;77.30
28767;DHT22;15921;52.034;20.650;2023-05-24T06:42:31;20.80;76.60
28767;DHT22;15921;52.034;20.650;2023-05-24T06:44:56;20.90;75.90
28767;DHT22;15921;52.034;20.650;2023-05-24T06:47:22;21.00;75.40
28767;DHT22;15921;52.034;20.650;2023-05-24T06:49:48;20.90;74.90
28767;DHT22;15921;52.034;20.650;2023-05-24T06:52:14;21.00;74.70
28767;DHT22;15921;52.034;20.650;2023-05-24T06:54:40;21.00;75.50
28767;DHT22;15921;52.034;20.650;2023-05-24T06:57:06;21.00;75.70
28767;DHT22;15921;52.034;20.650;2023-05-24T06:59:31;21.10;76.20
28767;DHT22;15921;52.034;20.650;2023-05-24T07:01:57;21.20;75.50
28767;DHT22;15921;52.034;20.650;2023-05-24T07:04:23;21.30;75.40
28767;DHT22;15921;52.034;20.650;2023-05-24T07:06:49;21.40;75.20
28767;DHT22;15921;52.034;20.650;2023-05-24T07:09:19;21.60;75.90
28767;DHT22;15921;52.034;20.650;2023-05-24T07:11:45;21.70;75.10
28767;DHT22;15921;52.034;20.650;2023-05-24T07:14:10;21.80;74.40
28767;DHT22;15921;52.034;20.650;2023-05-24T07:16:36;21.60;74.50
28767;DHT22;15921;52.034;20.650;2023-05-24T07:19:02;21.60;74.90
28767;DHT22;15921;52.034;20.650;2023-05-24T07:21:28;21.70;75.00
28767;DHT22;15921;52.034;20.650;2023-05-24T07:23:53;21.80;74.90
28767;DHT22;15921;52.034;20.650;2023-05-24T07:26:19;21.90;73.90
28767;DHT22;15921;52.034;20.650;2023-05-24T07:28:46;22.00;74.00
28767;DHT22;15921;52.034;20.650;2023-05-24T07:31:12;22.20;73.20
28767;DHT22;15921;52.034;20.650;2023-05-24T07:33:38;22.30;72.90
28767;DHT22;15921;52.034;20.650;2023-05-24T07:36:06;22.40;72.00
28767;DHT22;15921;52.034;20.650;2023-05-24T07:38:33;22.40;72.30
28767;DHT22;15921;52.034;20.650;2023-05-24T07:41:01;22.40;71.60
28767;DHT22;15921;52.034;20.650;2023-05-24T07:43:28;22.40;72.00
28767;DHT22;15921;52.034;20.650;2023-05-24T07:45:53;22.50;71.00
28767;DHT22;15921;52.034;20.650;2023-05-24T07:48:19;22.60;70.80
28767;DHT22;15921;52.034;20.650;2023-05-24T07:50:47;22.60;71.00
28767;DHT22;15921;52.034;20.650;2023-05-24T07:53:14;22.70;71.00
28767;DHT22;15921;52.034;20.650;2023-05-24T07:55:40;22.80;70.10
28767;DHT22;15921;52.034;20.650;2023-05-24T07:58:06;22.90;69.60
28767;DHT22;15921;52.034;20.650;2023-05-24T08:00:32;23.20;69.00
28767;DHT22;15921;52.034;20.650;2023-05-24T08:02:58;23.20;67.80
28767;DHT22;15921;52.034;20.650;2023-05-24T08:05:24;23.30;67.70
28767;DHT22;15921;52.034;20.650;2023-05-24T08:07:50;23.30;66.90
28767;DHT22;15921;52.034;20.650;2023-05-24T08:10:17;23.40;66.50
28767;DHT22;15921;52.034;20.650;2023-05-24T08:12:43;23.60;67.00
28767;DHT22;15921;52.034;20.650;2023-05-24T08:15:09;23.60;67.00
28767;DHT22;15921;52.034;20.650;2023-05-24T08:17:35;23.70;67.80
28767;DHT22;15921;52.034;20.650;2023-05-24T08:20:02;23.80;67.80
28767;DHT22;15921;52.034;20.650;2023-05-24T08:22:31;23.80;67.40
28767;DHT22;15921;52.034;20.650;2023-05-24T08:24:56;23.80;67.70
28767;DHT22;15921;52.034;20.650;2023-05-24T08:27:22;23.80;67.30
28767;DHT22;15921;52.034;20.650;2023-05-24T08:29:48;23.70;66.90
28767;DHT22;15921;52.034;20.650;2023-05-24T08:32:14;23.90;67.40
28767;DHT22;15921;52.034;20.650;2023-05-24T08:34:40;24.20;67.20
28767;DHT22;15921;52.034;20.650;2023-05-24T08:37:06;24.40;65.80
28767;DHT22;15921;52.034;20.650;2023-05-24T08:39:33;24.50;65.00
28767;DHT22;15921;52.034;20.650;2023-05-24T08:41:59;24.50;64.60
28767;DHT22;15921;52.034;20.650;2023-05-24T08:44:26;24.50;64.80
28767;DHT22;15921;52.034;20.650;2023-05-24T08:46:54;24.50;64.70
28767;DHT22;15921;52.034;20.650;2023-05-24T08:49:20;24.40;65.00
28767;DHT22;15921;52.034;20.650;2023-05-24T08:51:46;24.40;65.00
28767;DHT22;15921;52.034;20.650;2023-05-24T08:54:12;24.40;65.40
28767;DHT22;15921;52.034;20.650;2023-05-24T08:56:39;24.40;64.60
28767;DHT22;15921;52.034;20.650;2023-05-24T08:59:07;24.30;64.70
28767;DHT22;15921;52.034;20.650;2023-05-24T09:01:33;24.40;65.30
28767;DHT22;15921;52.034;20.650;2023-05-24T09:04:02;24.50;65.00
28767;DHT22;15921;52.034;20.650;2023-05-24T09:06:29;24.60;65.00
28767;DHT22;15921;52.034;20.650;2023-05-24T09:08:55;24.70;65.20
28767;DHT22;15921;52.034;20.650;2023-05-24T09:11:23;24.80;64.50
28767;DHT22;15921;52.034;20.650;2023-05-24T09:13:50;24.80;64.60
28767;DHT22;15921;52.034;20.650;2023-05-24T09:16:16;24.90;64.20
28767;DHT22;15921;52.034;20.650;2023-05-24T09:18:42;25.00;63.80
28767;DHT22;15921;52.034;20.650;2023-05-24T09:21:09;25.20;63.90
28767;DHT22;15921;52.034;20.650;2023-05-24T09:23:36;25.40;63.60
28767;DHT22;15921;52.034;20.650;2023-05-24T09:26:08;25.70;62.80
28767;DHT22;15921;52.034;20.650;2023-05-24T09:28:36;26.10;61.70
28767;DHT22;15921;52.034;20.650;2023-05-24T09:31:02;26.40;61.00
28767;DHT22;15921;52.034;20.650;2023-05-24T09:33:32;26.80;60.60
28767;DHT22;15921;52.034;20.650;2023-05-24T09:36:03;27.10;59.60
28767;DHT22;15921;52.034;20.650;2023-05-24T09:38:29;27.10;58.80
28767;DHT22;15921;52.034;20.650;2023-05-24T09:41:05;27.10;58.70
28767;DHT22;15921;52.034;20.650;2023-05-24T09:43:32;27.30;58.20
28767;DHT22;15921;52.034;20.650;2023-05-24T09:46:02;27.20;58.50
28767;DHT22;15921;52.034;20.650;2023-05-24T09:48:29;27.40;58.60
28767;DHT22;15921;52.034;20.650;2023-05-24T09:51:05;27.60;58.20
28767;DHT22;15921;52.034;20.650;2023-05-24T09:53:35;27.90;58.40
28767;DHT22;15921;52.034;20.650;2023-05-24T09:56:05;28.10;57.00
28767;DHT22;15921;52.034;20.650;2023-05-24T09:58:32;28.20;56.90
28767;DHT22;15921;52.034;20.650;2023-05-24T10:01:10;28.30;56.50
28767;DHT22;15921;52.034;20.650;2023-05-24T10:03:38;28.30;57.20
28767;DHT22;15921;52.034;20.650;2023-05-24T10:06:04;28.20;57.50
28767;DHT22;15921;52.034;20.650;2023-05-24T10:08:35;27.90;57.60
28767;DHT22;15921;52.034;20.650;2023-05-24T10:11:04;27.80;57.90
28767;DHT22;15921;52.034;20.650;2023-05-24T10:13:35;27.70;58.40
28767;DHT22;15921;52.034;20.650;2023-05-24T10:16:02;27.50;57.80
28767;DHT22;15921;52.034;20.650;2023-05-24T10:18:28;27.30;59.00
28767;DHT22;15921;52.034;20.650;2023-05-24T10:20:55;27.30;59.10
28767;DHT22;15921;52.034;20.650;2023-05-24T10:23:23;27.30;59.00
28767;DHT22;15921;52.034;20.650;2023-05-24T10:25:55;27.40;59.10
28767;DHT22;15921;52.034;20.650;2023-05-24T10:28:24;27.40;59.00
28767;DHT22;15921;52.034;20.650;2023-05-24T10:30:58;27.50;59.20
28767;DHT22;15921;52.034;20.650;2023-05-24T10:33:26;27.60;58.90
28767;DHT22;15921;52.034;20.650;2023-05-24T10:35:53;27.60;58.80
28767;DHT22;15921;52.034;20.650;2023-05-24T10:38:21;27.70;59.10
28767;DHT22;15921;52.034;20.650;2023-05-24T10:40:48;27.90;58.60
28767;DHT22;15921;52.034;20.650;2023-05-24T10:43:16;28.20;58.10
28767;DHT22;15921;52.034;20.650;2023-05-24T10:45:47;28.60;57.30
28767;DHT22;15921;52.034;20.650;2023-05-24T10:50:39;29.50;56.50
28767;DHT22;15921;52.034;20.650;2023-05-24T10:58:42;30.10;57.90
28767;DHT22;15921;52.034;20.650;2023-05-24T11:01:33;30.20;56.90
28767;DHT22;15921;52.034;20.650;2023-05-24T11:04:09;30.30;57.00
28767;DHT22;15921;52.034;20.650;2023-05-24T11:07:01;30.70;56.70
28767;DHT22;15921;52.034;20.650;2023-05-24T11:09:28;30.70;56.80
28767;DHT22;15921;52.034;20.650;2023-05-24T11:11:56;30.50;56.10
28767;DHT22;15921;52.034;20.650;2023-05-24T11:14:27;30.50;56.10
28767;DHT22;15921;52.034;20.650;2023-05-24T11:16:54;30.30;56.50
28767;DHT22;15921;52.034;20.650;2023-05-24T11:19:21;30.10;56.40
28767;DHT22;15921;52.034;20.650;2023-05-24T11:21:51;29.90;56.80
28767;DHT22;15921;52.034;20.650;2023-05-24T11:24:23;29.90;56.90
28767;DHT22;15921;52.034;20.650;2023-05-24T11:26:50;30.00;56.90
28767;DHT22;15921;52.034;20.650;2023-05-24T11:29:16;30.10;55.80
28767;DHT22;15921;52.034;20.650;2023-05-24T11:31:49;30.20;55.70
28767;DHT22;15921;52.034;20.650;2023-05-24T11:34:17;30.40;55.30
28767;DHT22;15921;52.034;20.650;2023-05-24T11:36:43;30.60;55.10
28767;DHT22;15921;52.034;20.650;2023-05-24T11:39:09;30.50;55.60
28767;DHT22;15921;52.034;20.650;2023-05-24T11:41:37;30.50;55.60
28767;DHT22;15921;52.034;20.650;2023-05-24T11:44:04;30.40;55.10
28767;DHT22;15921;52.034;20.650;2023-05-24T11:46:31;30.60;55.20
28767;DHT22;15921;52.034;20.650;2023-05-24T11:48:58;30.90;54.80
28767;DHT22;15921;52.034;20.650;2023-05-24T11:51:31;30.90;54.50
28767;DHT22;15921;52.034;20.650;2023-05-24T11:53:58;30.80;54.00
28767;DHT22;15921;52.034;20.650;2023-05-24T11:56:25;31.10;53.70
28767;DHT22;15921;52.034;20.650;2023-05-24T12:01:41;32.00;52.90
28767;DHT22;15921;52.034;20.650;2023-05-24T12:04:07;32.30;51.90
28767;DHT22;15921;52.034;20.650;2023-05-24T12:06:38;32.40;51.90
28767;DHT22;15921;52.034;20.650;2023-05-24T12:09:05;32.60;51.60
28767;DHT22;15921;52.034;20.650;2023-05-24T12:11:45;33.00;51.40
28767;DHT22;15921;52.034;20.650;2023-05-24T12:14:22;33.50;52.20
28767;DHT22;15921;52.034;20.650;2023-05-24T12:16:48;34.20;51.30
28767;DHT22;15921;52.034;20.650;2023-05-24T12:19:18;33.60;51.30
28767;DHT22;15921;52.034;20.650;2023-05-24T12:21:45;32.70;52.50
28767;DHT22;15921;52.034;20.650;2023-05-24T12:24:13;31.70;53.70
28767;DHT22;15921;52.034;20.650;2023-05-24T12:26:43;30.60;55.30
28767;DHT22;15921;52.034;20.650;2023-05-24T12:29:10;29.80;57.20
28767;DHT22;15921;52.034;20.650;2023-05-24T12:31:39;29.40;57.90
28767;DHT22;15921;52.034;20.650;2023-05-24T12:34:06;29.50;58.10
28767;DHT22;15921;52.034;20.650;2023-05-24T12:36:33;29.40;58.10
28767;DHT22;15921;52.034;20.650;2023-05-24T12:39:14;29.40;58.50
28767;DHT22;15921;52.034;20.650;2023-05-24T12:41:40;29.50;58.00
28767;DHT22;15921;52.034;20.650;2023-05-24T12:44:06;29.70;58.00
28767;DHT22;15921;52.034;20.650;2023-05-24T12:46:32;29.80;58.00
28767;DHT22;15921;52.034;20.650;2023-05-24T12:48:58;29.60;58.10
28767;DHT22;15921;52.034;20.650;2023-05-24T12:51:26;29.90;58.20
28767;DHT22;15921;52.034;20.650;2023-05-24T12:53:52;29.50;58.00
28767;DHT22;15921;52.034;20.650;2023-05-24T12:56:18;28.80;59.10
28767;DHT22;15921;52.034;20.650;2023-05-24T12:58:44;28.30;60.00
28767;DHT22;15921;52.034;20.650;2023-05-24T13:01:10;28.10;60.90
28767;DHT22;15921;52.034;20.650;2023-05-24T13:03:36;28.10;61.20
28767;DHT22;15921;52.034;20.650;2023-05-24T13:06:04;28.10;61.20
28767;DHT22;15921;52.034;20.650;2023-05-24T13:08:30;27.90;61.50
28767;DHT22;15921;52.034;20.650;2023-05-24T13:10:56;28.00;61.60
28767;DHT22;15921;52.034;20.650;2023-05-24T13:13:22;28.20;61.40
28767;DHT22;15921;52.034;20.650;2023-05-24T13:15:49;28.50;60.60
28767;DHT22;15921;52.034;20.650;2023-05-24T13:18:15;29.10;59.80
28767;DHT22;15921;52.034;20.650;2023-05-24T13:20:41;31.50;57.20
28767;DHT22;15921;52.034;20.650;2023-05-24T13:23:07;35.00;52.60
28767;DHT22;15921;52.034;20.650;2023-05-24T13:25:32;38.20;48.50
28767;DHT22;15921;52.034;20.650;2023-05-24T13:27:58;40.50;44.90
28767;DHT22;15921;52.034;20.650;2023-05-24T13:30:24;42.00;42.40
28767;DHT22;15921;52.034;20.650;2023-05-24T13:32:55;41.20;41.00
28767;DHT22;15921;52.034;20.650;2023-05-24T13:35:23;39.20;42.80
28767;DHT22;15921;52.034;20.650;2023-05-24T13:37:48;37.40;44.40
28767;DHT22;15921;52.034;20.650;2023-05-24T13:40:15;36.50;45.80
28767;DHT22;15921;52.034;20.650;2023-05-24T13:42:41;36.70;45.80
28767;DHT22;15921;52.034;20.650;2023-05-24T13:45:07;38.00;44.40
28767;DHT22;15921;52.034;20.650;2023-05-24T13:47:33;39.10;43.20
28767;DHT22;15921;52.034;20.650;2023-05-24T13:49:59;39.90;41.50
28767;DHT22;15921;52.034;20.650;2023-05-24T13:52:25;39.90;41.50
28767;DHT22;15921;52.034;20.650;2023-05-24T13:54:50;40.60;40.80
28767;DHT22;15921;52.034;20.650;2023-05-24T13:57:16;41.10;40.00
28767;DHT22;15921;52.034;20.650;2023-05-24T13:59:42;41.70;39.10
28767;DHT22;15921;52.034;20.650;2023-05-24T14:02:08;41.80;38.40
28767;DHT22;15921;52.034;20.650;2023-05-24T14:04:34;41.90;38.30
28767;DHT22;15921;52.034;20.650;2023-05-24T14:06:59;41.40;38.60
28767;DHT22;15921;52.034;20.650;2023-05-24T14:09:25;41.00;38.70
28767;DHT22;15921;52.034;20.650;2023-05-24T14:11:51;41.00;38.90
28767;DHT22;15921;52.034;20.650;2023-05-24T14:14:17;40.90;38.70
28767;DHT22;15921;52.034;20.650;2023-05-24T14:16:43;40.20;39.50
28767;DHT22;15921;52.034;20.650;2023-05-24T14:19:09;39.50;40.20
28767;DHT22;15921;52.034;20.650;2023-05-24T14:21:35;39.10;40.70
28767;DHT22;15921;52.034;20.650;2023-05-24T14:24:01;38.10;41.70
28767;DHT22;15921;52.034;20.650;2023-05-24T14:26:27;37.30;43.10
28767;DHT22;15921;52.034;20.650;2023-05-24T14:28:53;37.40;43.10
28767;DHT22;15921;52.034;20.650;2023-05-24T14:31:18;37.90;42.90
28767;DHT22;15921;52.034;20.650;2023-05-24T14:33:44;38.50;42.30
28767;DHT22;15921;52.034;20.650;2023-05-24T14:36:09;38.90;41.60
28767;DHT22;15921;52.034;20.650;2023-05-24T14:38:35;38.90;41.50
28767;DHT22;15921;52.034;20.650;2023-05-24T14:41:01;38.70;41.90
28767;DHT22;15921;52.034;20.650;2023-05-24T14:43:27;38.10;42.00
28767;DHT22;15921;52.034;20.650;2023-05-24T14:45:53;37.50;42.90
28767;DHT22;15921;52.034;20.650;2023-05-24T14:48:18;36.80;43.60
28767;DHT22;15921;52.034;20.650;2023-05-24T14:50:44;36.50;44.00
28767;DHT22;15921;52.034;20.650;2023-05-24T14:53:10;36.00;44.20
28767;DHT22;15921;52.034;20.650;2023-05-24T14:55:39;36.10;44.50
28767;DHT22;15921;52.034;20.650;2023-05-24T14:58:05;36.60;44.10
28767;DHT22;15921;52.034;20.650;2023-05-24T15:00:36;37.20;43.60
28767;DHT22;15921;52.034;20.650;2023-05-24T15:03:03;37.80;42.50
28767;DHT22;15921;52.034;20.650;2023-05-24T15:05:30;37.70;42.50
28767;DHT22;15921;52.034;20.650;2023-05-24T15:07:56;37.30;42.70
28767;DHT22;15921;52.034;20.650;2023-05-24T15:10:21;36.80;43.00
28767;DHT22;15921;52.034;20.650;2023-05-24T15:12:47;36.60;43.50
28767;DHT22;15921;52.034;20.650;2023-05-24T15:15:13;37.10;43.20
28767;DHT22;15921;52.034;20.650;2023-05-24T15:17:40;37.00;42.80
28767;DHT22;15921;52.034;20.650;2023-05-24T15:20:06;36.60;43.60
28767;DHT22;15921;52.034;20.650;2023-05-24T15:22:32;36.50;43.50
28767;DHT22;15921;52.034;20.650;2023-05-24T15:24:58;36.40;43.60
28767;DHT22;15921;52.034;20.650;2023-05-24T15:27:24;36.40;43.60
28767;DHT22;15921;52.034;20.650;2023-05-24T15:29:50;36.90;43.20
28767;DHT22;15921;52.034;20.650;2023-05-24T15:32:18;37.10;42.70
28767;DHT22;15921;52.034;20.650;2023-05-24T15:34:44;35.10;44.80
28767;DHT22;15921;52.034;20.650;2023-05-24T15:37:10;32.90;47.90
28767;DHT22;15921;52.034;20.650;2023-05-24T15:39:35;31.00;50.60
28767;DHT22;15921;52.034;20.650;2023-05-24T15:42:01;29.60;53.00